sensor_id;sensor_type;location;lat;lon;timestamp;pressure;altitude;pressure_sealevel;temperature;humidity
23229;BME280;11783;50.350;6.576;2023-11-21T00:00:42;95498.94;;;7.42;100.00
23229;BME280;11783;50.350;6.576;2023-11-21T00:03:07;95494.44;;;7.43;100.00
23229;BME280;11783;50.350;6.576;2023-11-21T00:05:33;95507.13;;;7.41;100.00
23229;BME280;11783;50.350;6.576;2023-11-21T00:07:58;95509.50;;;7.42;100.00
23229;BME280;11783;50.350;6.576;2023-11-21T00:10:24;95505.84;;;7.43;100.00
23229;BME280;11783;50.350;6.576;2023-11-21T00:12:49;95508.47;;;7.43;100.00
23229;BME280;11783;50.350;6.576;2023-11-21T00:15:15;95515.16;;;7.46;100.00
23229;BME280;11783;50.350;6.576;2023-11-21T00:17:40;95516.66;;;7.42;100.00
23229;BME280;11783;50.350;6.576;2023-11-21T00:20:06;95515.16;;;7.46;100.00
23229;BME280;11783;50.350;6.576;2023-11-21T00:22:35;95516.75;;;7.47;100.00
23229;BME280;11783;50.350;6.576;2023-11-21T00:25:01;95525.72;;;7.46;100.00
23229;BME280;11783;50.350;6.576;2023-11-21T00:27:29;95518.25;;;7.43;100.00
23229;BME280;11783;50.350;6.576;2023-11-21T00:29:54;95516.88;;;7.40;100.00
23229;BME280;11783;50.350;6.576;2023-11-21T00:32:19;95520.81;;;7.38;100.00
23229;BME280;11783;50.350;6.576;2023-11-21T00:34:45;95523.69;;;7.36;100.00
23229;BME280;11783;50.350;6.576;2023-11-21T00:37:10;95522.91;;;7.36;100.00
23229;BME280;11783;50.350;6.576;2023-11-21T00:39:36;95527.63;;;7.34;100.00
23229;BME280;11783;50.350;6.576;2023-11-21T00:42:01;95534.75;;;7.33;100.00
23229;BME280;11783;50.350;6.576;2023-11-21T00:44:26;95533.16;;;7.32;100.00
23229;BME280;11783;50.350;6.576;2023-11-21T00:46:52;95534.53;;;7.35;100.00
23229;BME280;11783;50.350;6.576;2023-11-21T00:49:17;95531.63;;;7.36;100.00
23229;BME280;11783;50.350;6.576;2023-11-21T00:51:42;95533.72;;;7.34;100.00
23229;BME280;11783;50.350;6.576;2023-11-21T00:54:08;95537.66;;;7.32;100.00
23229;BME280;11783;50.350;6.576;2023-11-21T00:56:33;95536.97;;;7.24;100.00
23229;BME280;11783;50.350;6.576;2023-11-21T00:58:59;95537.94;;;7.18;100.00
23229;BME280;11783;50.350;6.576;2023-11-21T01:01:24;95542.34;;;7.13;100.00
23229;BME280;11783;50.350;6.576;2023-11-21T01:03:50;95553.03;;;7.06;100.00
23229;BME280;11783;50.350;6.576;2023-11-21T01:06:18;95556.41;;;7.02;100.00
23229;BME280;11783;50.350;6.576;2023-11-21T01:08:44;95561.84;;;6.95;100.00
23229;BME280;11783;50.350;6.576;2023-11-21T01:11:10;95568.41;;;6.92;100.00
23229;BME280;11783;50.350;6.576;2023-11-21T01:13:38;95556.72;;;6.88;100.00
23229;BME280;11783;50.350;6.576;2023-11-21T01:16:04;95567.28;;;6.88;100.00
23229;BME280;11783;50.350;6.576;2023-11-21T01:18:31;95567.63;;;6.80;100.00
23229;BME280;11783;50.350;6.576;2023-11-21T01:20:57;95569.00;;;6.83;100.00
23229;BME280;11783;50.350;6.576;2023-11-21T01:23:22;95569.00;;;6.83;100.00
23229;BME280;11783;50.350;6.576;2023-11-21T01:25:48;95584.59;;;6.84;100.00
23229;BME280;11783;50.350;6.576;2023-11-21T01:28:13;95581.97;;;6.84;100.00
23229;BME280;11783;50.350;6.576;2023-11-21T01:30:38;95588.41;;;6.88;100.00
23229;BME280;11783;50.350;6.576;2023-11-21T01:33:04;95591.03;;;6.88;100.00
23229;BME280;11783;50.350;6.576;2023-11-21T01:35:30;95587.25;;;6.84;100.00
23229;BME280;11783;50.350;6.576;2023-11-21T01:37:55;95595.72;;;6.86;100.00
23229;BME280;11783;50.350;6.576;2023-11-21T01:40:21;95594.69;;;6.87;100.00
23229;BME280;11783;50.350;6.576;2023-11-21T01:42:46;95598.63;;;6.85;100.00
23229;BME280;11783;50.350;6.576;2023-11-21T01:45:13;95598.13;;;6.88;100.00
23229;BME280;11783;50.350;6.576;2023-11-21T01:47:38;95603.41;;;6.88;100.00
23229;BME280;11783;50.350;6.576;2023-11-21T01:50:09;95604.25;;;6.88;100.00
23229;BME280;11783;50.350;6.576;2023-11-21T01:52:38;95596.78;;;6.85;100.00
23229;BME280;11783;50.350;6.576;2023-11-21T01:55:06;95603.53;;;6.93;100.00
23229;BME280;11783;50.350;6.576;2023-11-21T01:57:33;95592.41;;;6.91;100.00
23229;BME280;11783;50.350;6.576;2023-11-21T02:00:01;95592.75;;;6.94;100.00
23229;BME280;11783;50.350;6.576;2023-11-21T02:02:36;95603.06;;;6.96;100.00
23229;BME280;11783;50.350;6.576;2023-11-21T02:05:01;95599.28;;;6.92;100.00
23229;BME280;11783;50.350;6.576;2023-11-21T02:07:27;95596.41;;;6.93;100.00
23229;BME280;11783;50.350;6.576;2023-11-21T02:09:52;95602.97;;;6.91;100.00
23229;BME280;11783;50.350;6.576;2023-11-21T02:12:17;95604.56;;;6.92;100.00
23229;BME280;11783;50.350;6.576;2023-11-21T02:14:43;95604.81;;;6.90;100.00
23229;BME280;11783;50.350;6.576;2023-11-21T02:17:09;95603.78;;;6.91;100.00
23229;BME280;11783;50.350;6.576;2023-11-21T02:19:35;95613.53;;;6.91;100.00
23229;BME280;11783;50.350;6.576;2023-11-21T02:22:00;95621.22;;;6.92;100.00
23229;BME280;11783;50.350;6.576;2023-11-21T02:24:28;95627.31;;;6.93;100.00
23229;BME280;11783;50.350;6.576;2023-11-21T02:26:53;95618.47;;;6.87;100.00
23229;BME280;11783;50.350;6.576;2023-11-21T02:29:20;95617.56;;;6.93;100.00
23229;BME280;11783;50.350;6.576;2023-11-21T02:31:54;95629.41;;;6.91;100.00
23229;BME280;11783;50.350;6.576;2023-11-21T02:34:20;95623.06;;;6.92;100.00
23229;BME280;11783;50.350;6.576;2023-11-21T02:36:46;95627.31;;;6.93;100.00
23229;BME280;11783;50.350;6.576;2023-11-21T02:39:12;95637.66;;;6.94;100.00
23229;BME280;11783;50.350;6.576;2023-11-21T02:41:38;95633.50;;;6.98;100.00
23229;BME280;11783;50.350;6.576;2023-11-21T02:44:05;95639.81;;;6.97;100.00
23229;BME280;11783;50.350;6.576;2023-11-21T02:46:31;95632.03;;;6.91;100.00
23229;BME280;11783;50.350;6.576;2023-11-21T02:48:59;95642.03;;;6.89;100.00
23229;BME280;11783;50.350;6.576;2023-11-21T02:51:24;95632.59;;;6.93;100.00
23229;BME280;11783;50.350;6.576;2023-11-21T02:53:50;95641.22;;;6.88;100.00
23229;BME280;11783;50.350;6.576;2023-11-21T02:56:16;95649.59;;;6.85;100.00
23229;BME280;11783;50.350;6.576;2023-11-21T02:58:43;95650.63;;;6.84;100.00
23229;BME280;11783;50.350;6.576;2023-11-21T03:01:11;95646.38;;;6.83;100.00
23229;BME280;11783;50.350;6.576;2023-11-21T03:03:39;95634.22;;;6.82;100.00
23229;BME280;11783;50.350;6.576;2023-11-21T03:06:08;95639.75;;;6.81;100.00
23229;BME280;11783;50.350;6.576;2023-11-21T03:08:34;95646.28;;;6.78;100.00
23229;BME280;11783;50.350;6.576;2023-11-21T03:10:59;95646.63;;;6.82;100.00
23229;BME280;11783;50.350;6.576;2023-11-21T03:13:24;95640.41;;;6.88;100.00
23229;BME280;11783;50.350;6.576;2023-11-21T03:15:50;95650.06;;;6.94;100.00
23229;BME280;11783;50.350;6.576;2023-11-21T03:18:15;95654.19;;;6.90;100.00
23229;BME280;11783;50.350;6.576;2023-11-21T03:20:41;95658.69;;;6.89;100.00
23229;BME280;11783;50.350;6.576;2023-11-21T03:23:06;95651.78;;;6.88;100.00
23229;BME280;11783;50.350;6.576;2023-11-21T03:25:32;95666.69;;;6.94;100.00
23229;BME280;11783;50.350;6.576;2023-11-21T03:27:57;95666.59;;;6.89;100.00
23229;BME280;11783;50.350;6.576;2023-11-21T03:30:23;95669.69;;;6.86;100.00
23229;BME280;11783;50.350;6.576;2023-11-21T03:32:48;95675.44;;;6.83;100.00
23229;BME280;11783;50.350;6.576;2023-11-21T03:35:13;95673.84;;;6.82;100.00
23229;BME280;11783;50.350;6.576;2023-11-21T03:37:39;95685.22;;;6.83;100.00
23229;BME280;11783;50.350;6.576;2023-11-21T03:40:07;95681.53;;;6.84;100.00
23229;BME280;11783;50.350;6.576;2023-11-21T03:42:37;95684.97;;;6.84;100.00
23229;BME280;11783;50.350;6.576;2023-11-21T03:45:04;95689.69;;;6.82;100.00
23229;BME280;11783;50.350;6.576;2023-11-21T03:47:29;95688.41;;;6.85;100.00
23229;BME280;11783;50.350;6.576;2023-11-21T03:49:54;95683.97;;;6.74;100.00
23229;BME280;11783;50.350;6.576;2023-11-21T03:52:20;95692.13;;;6.72;100.00
23229;BME280;11783;50.350;6.576;2023-11-21T03:54:45;95691.91;;;6.74;100.00
23229;BME280;11783;50.350;6.576;2023-11-21T03:57:12;95684.88;;;6.79;100.00
23229;BME280;11783;50.350;6.576;2023-11-21T03:59:41;95694.72;;;6.84;100.00
23229;BME280;11783;50.350;6.576;2023-11-21T04:02:06;95692.91;;;6.84;100.00
23229;BME280;11783;50.350;6.576;2023-11-21T04:04:33;95701.38;;;6.86;100.00
23229;BME280;11783;50.350;6.576;2023-11-21T04:06:59;95703.34;;;6.91;100.00
23229;BME280;11783;50.350;6.576;2023-11-21T04:09:24;95709.06;;;6.88;100.00
23229;BME280;11783;50.350;6.576;2023-11-21T04:11:53;95716.44;;;6.86;100.00
23229;BME280;11783;50.350;6.576;2023-11-21T04:14:19;95721.28;;;6.89;100.00
23229;BME280;11783;50.350;6.576;2023-11-21T04:16:44;95725.28;;;6.91;100.00
23229;BME280;11783;50.350;6.576;2023-11-21T04:19:10;95726.56;;;6.89;100.00
23229;BME280;11783;50.350;6.576;2023-11-21T04:21:36;95719.44;;;6.89;100.00
23229;BME280;11783;50.350;6.576;2023-11-21T04:24:01;95731.84;;;6.89;100.00
23229;BME280;11783;50.350;6.576;2023-11-21T04:26:27;95729.41;;;6.87;100.00
23229;BME280;11783;50.350;6.576;2023-11-21T04:28:52;95732.03;;;6.87;100.00
23229;BME280;11783;50.350;6.576;2023-11-21T04:31:17;95738.59;;;6.85;100.00
23229;BME280;11783;50.350;6.576;2023-11-21T04:33:43;95737.78;;;6.84;100.00
23229;BME280;11783;50.350;6.576;2023-11-21T04:36:10;95735.72;;;6.86;100.00
23229;BME280;11783;50.350;6.576;2023-11-21T04:38:35;95735.50;;;6.88;100.00
23229;BME280;11783;50.350;6.576;2023-11-21T04:41:01;95745.97;;;6.83;100.00
23229;BME280;11783;50.350;6.576;2023-11-21T04:43:26;95738.41;;;6.75;100.00
23229;BME280;11783;50.350;6.576;2023-11-21T04:45:52;95735.75;;;6.75;100.00
23229;BME280;11783;50.350;6.576;2023-11-21T04:48:17;95742.16;;;6.67;100.00
23229;BME280;11783;50.350;6.576;2023-11-21T04:50:42;95749.97;;;6.62;100.00
23229;BME280;11783;50.350;6.576;2023-11-21T04:53:08;95741.25;;;6.61;100.00
23229;BME280;11783;50.350;6.576;2023-11-21T04:55:33;95751.81;;;6.61;100.00
23229;BME280;11783;50.350;6.576;2023-11-21T04:57:58;95754.00;;;6.64;100.00
23229;BME280;11783;50.350;6.576;2023-11-21T05:00:24;95754.56;;;6.66;100.00
23229;BME280;11783;50.350;6.576;2023-11-21T05:02:49;95755.59;;;6.65;100.00
23229;BME280;11783;50.350;6.576;2023-11-21T05:05:15;95748.47;;;6.66;100.00
23229;BME280;11783;50.350;6.576;2023-11-21T05:07:40;95757.22;;;6.66;100.00
23229;BME280;11783;50.350;6.576;2023-11-21T05:10:07;95759.84;;;6.66;100.00
23229;BME280;11783;50.350;6.576;2023-11-21T05:12:35;95763.66;;;6.71;100.00
23229;BME280;11783;50.350;6.576;2023-11-21T05:15:04;95756.31;;;6.73;100.00
23229;BME280;11783;50.350;6.576;2023-11-21T05:17:33;95764.00;;;6.74;100.00
23229;BME280;11783;50.350;6.576;2023-11-21T05:19:59;95767.91;;;6.72;100.00
23229;BME280;11783;50.350;6.576;2023-11-21T05:22:28;95764.22;;;6.73;100.00
23229;BME280;11783;50.350;6.576;2023-11-21T05:24:54;95767.34;;;6.70;100.00
23229;BME280;11783;50.350;6.576;2023-11-21T05:27:19;95768.00;;;6.65;100.00
23229;BME280;11783;50.350;6.576;2023-11-21T05:29:44;95775.81;;;6.60;100.00
23229;BME280;11783;50.350;6.576;2023-11-21T05:32:10;95772.59;;;6.58;100.00
23229;BME280;11783;50.350;6.576;2023-11-21T05:34:35;95787.88;;;6.56;100.00
23229;BME280;11783;50.350;6.576;2023-11-21T05:37:00;95790.16;;;6.52;100.00
23229;BME280;11783;50.350;6.576;2023-11-21T05:39:26;95784.66;;;6.54;100.00
23229;BME280;11783;50.350;6.576;2023-11-21T05:41:53;95791.78;;;6.53;100.00
23229;BME280;11783;50.350;6.576;2023-11-21T05:44:18;95789.00;;;6.48;100.00
23229;BME280;11783;50.350;6.576;2023-11-21T05:46:44;95791.97;;;6.40;100.00
23229;BME280;11783;50.350;6.576;2023-11-21T05:49:09;95796.78;;;6.43;100.00
23229;BME280;11783;50.350;6.576;2023-11-21T05:51:35;95798.63;;;6.43;100.00
23229;BME280;11783;50.350;6.576;2023-11-21T05:54:00;95797.72;;;6.37;100.00
23229;BME280;11783;50.350;6.576;2023-11-21T05:56:25;95795.88;;;6.37;100.00
23229;BME280;11783;50.350;6.576;2023-11-21T05:58:51;95796.91;;;6.36;100.00
23229;BME280;11783;50.350;6.576;2023-11-21T06:01:16;95786.44;;;6.30;100.00
23229;BME280;11783;50.350;6.576;2023-11-21T06:03:41;95792.16;;;6.27;100.00
23229;BME280;11783;50.350;6.576;2023-11-21T06:06:08;95802.59;;;6.22;100.00
23229;BME280;11783;50.350;6.576;2023-11-21T06:08:33;95806.50;;;6.19;100.00
23229;BME280;11783;50.350;6.576;2023-11-21T06:10:59;95812.59;;;6.20;100.00
23229;BME280;11783;50.350;6.576;2023-11-21T06:13:24;95807.19;;;6.26;100.00
23229;BME280;11783;50.350;6.576;2023-11-21T06:15:52;95810.88;;;6.25;100.00
23229;BME280;11783;50.350;6.576;2023-11-21T06:18:18;95826.03;;;6.30;100.00
23229;BME280;11783;50.350;6.576;2023-11-21T06:20:45;95822.34;;;6.31;100.00
23229;BME280;11783;50.350;6.576;2023-11-21T06:23:11;95829.84;;;6.34;100.00
23229;BME280;11783;50.350;6.576;2023-11-21T06:25:36;95838.34;;;6.36;100.00
23229;BME280;11783;50.350;6.576;2023-11-21T06:28:02;95838.00;;;6.32;100.00
23229;BME280;11783;50.350;6.576;2023-11-21T06:30:28;95840.47;;;6.27;100.00
23229;BME280;11783;50.350;6.576;2023-11-21T06:32:54;95841.50;;;6.26;100.00
23229;BME280;11783;50.350;6.576;2023-11-21T06:35:20;95840.47;;;6.27;100.00
23229;BME280;11783;50.350;6.576;2023-11-21T06:37:46;95845.75;;;6.27;100.00
23229;BME280;11783;50.350;6.576;2023-11-21T06:40:13;95854.97;;;6.36;100.00
23229;BME280;11783;50.350;6.576;2023-11-21T06:42:40;95851.88;;;6.40;100.00
23229;BME280;11783;50.350;6.576;2023-11-21T06:45:07;95856.00;;;6.35;100.00
23229;BME280;11783;50.350;6.576;2023-11-21T06:47:33;95852.78;;;6.33;100.00
23229;BME280;11783;50.350;6.576;2023-11-21T06:49:58;95857.38;;;6.38;100.00
23229;BME280;11783;50.350;6.576;2023-11-21T06:52:24;95861.50;;;6.34;100.00
23229;BME280;11783;50.350;6.576;2023-11-21T06:54:49;95868.81;;;6.32;100.00
23229;BME280;11783;50.350;6.576;2023-11-21T06:57:15;95873.53;;;6.30;100.00
23229;BME280;11783;50.350;6.576;2023-11-21T06:59:41;95889.22;;;6.25;100.00
23229;BME280;11783;50.350;6.576;2023-11-21T07:02:06;95881.53;;;6.23;100.00
23229;BME280;11783;50.350;6.576;2023-11-21T07:04:33;95890.13;;;6.19;100.00
23229;BME280;11783;50.350;6.576;2023-11-21T07:06:58;95895.06;;;6.15;100.00
23229;BME280;11783;50.350;6.576;2023-11-21T07:09:24;95894.31;;;6.08;100.00
23229;BME280;11783;50.350;6.576;2023-11-21T07:11:53;95903.72;;;6.04;100.00
23229;BME280;11783;50.350;6.576;2023-11-21T07:14:19;95900.28;;;6.03;100.00
23229;BME280;11783;50.350;6.576;2023-11-21T07:16:45;95905.78;;;6.02;100.00
23229;BME280;11783;50.350;6.576;2023-11-21T07:19:11;95916.78;;;5.99;100.00
23229;BME280;11783;50.350;6.576;2023-11-21T07:21:38;95925.03;;;6.02;100.00
23229;BME280;11783;50.350;6.576;2023-11-21T07:24:04;95927.81;;;6.07;100.00
23229;BME280;11783;50.350;6.576;2023-11-21T07:26:31;95924.16;;;6.08;100.00
23229;BME280;11783;50.350;6.576;2023-11-21T07:28:57;95933.66;;;6.10;100.00
23229;BME280;11783;50.350;6.576;2023-11-21T07:31:23;95938.94;;;6.10;100.00
23229;BME280;11783;50.350;6.576;2023-11-21T07:33:49;95945.41;;;6.14;100.00
23229;BME280;11783;50.350;6.576;2023-11-21T07:36:16;95944.53;;;6.20;100.00
23229;BME280;11783;50.350;6.576;2023-11-21T07:38:44;95942.69;;;6.20;100.00
23229;BME280;11783;50.350;6.576;2023-11-21T07:41:10;95950.81;;;6.19;100.00
23229;BME280;11783;50.350;6.576;2023-11-21T07:43:35;95957.28;;;6.23;100.00
23229;BME280;11783;50.350;6.576;2023-11-21T07:46:02;95953.38;;;6.25;100.00
23229;BME280;11783;50.350;6.576;2023-11-21T07:48:29;95960.34;;;6.20;100.00
23229;BME280;11783;50.350;6.576;2023-11-21T07:50:54;95959.75;;;6.36;100.00
23229;BME280;11783;50.350;6.576;2023-11-21T07:53:20;95964.44;;;6.34;100.00
23229;BME280;11783;50.350;6.576;2023-11-21T07:55:46;95965.03;;;6.36;100.00
23229;BME280;11783;50.350;6.576;2023-11-21T07:58:12;95957.59;;;6.45;100.00
23229;BME280;11783;50.350;6.576;2023-11-21T08:00:38;95968.81;;;6.40;100.00
23229;BME280;11783;50.350;6.576;2023-11-21T08:03:04;95971.25;;;6.42;100.00
23229;BME280;11783;50.350;6.576;2023-11-21T08:05:31;95968.97;;;6.45;100.00
23229;BME280;11783;50.350;6.576;2023-11-21T08:07:56;95973.94;;;6.53;100.00
23229;BME280;11783;50.350;6.576;2023-11-21T08:10:21;95975.41;;;6.49;100.00
23229;BME280;11783;50.350;6.576;2023-11-21T08:12:47;95981.47;;;6.50;100.00
23229;BME280;11783;50.350;6.576;2023-11-21T08:15:14;95979.81;;;6.55;100.00
23229;BME280;11783;50.350;6.576;2023-11-21T08:17:39;95979.81;;;6.55;100.00
23229;BME280;11783;50.350;6.576;2023-11-21T08:20:05;95990.38;;;6.55;100.00
23229;BME280;11783;50.350;6.576;2023-11-21T08:22:31;95984.28;;;6.55;100.00
23229;BME280;11783;50.350;6.576;2023-11-21T08:24:57;95994.31;;;6.46;100.00
23229;BME280;11783;50.350;6.576;2023-11-21T08:27:22;95993.81;;;6.56;100.00
23229;BME280;11783;50.350;6.576;2023-11-21T08:29:48;96004.28;;;6.62;100.00
23229;BME280;11783;50.350;6.576;2023-11-21T08:32:13;96002.56;;;6.68;100.00
23229;BME280;11783;50.350;6.576;2023-11-21T08:34:40;96003.19;;;6.70;100.00
23229;BME280;11783;50.350;6.576;2023-11-21T08:37:08;96005.84;;;6.82;100.00
23229;BME280;11783;50.350;6.576;2023-11-21T08:39:33;96005.97;;;6.87;100.00
23229;BME280;11783;50.350;6.576;2023-11-21T08:41:59;96002.09;;;6.89;100.00
23229;BME280;11783;50.350;6.576;2023-11-21T08:44:24;96011.69;;;6.84;100.00
23229;BME280;11783;50.350;6.576;2023-11-21T08:46:50;96016.34;;;6.88;100.00
23229;BME280;11783;50.350;6.576;2023-11-21T08:49:15;96017.94;;;6.89;100.00
23229;BME280;11783;50.350;6.576;2023-11-21T08:51:41;96021.63;;;6.88;100.00
23229;BME280;11783;50.350;6.576;2023-11-21T08:54:06;96023.94;;;6.96;100.00
23229;BME280;11783;50.350;6.576;2023-11-21T08:56:36;96026.91;;;7.00;100.00
23229;BME280;11783;50.350;6.576;2023-11-21T08:59:01;96021.16;;;6.91;100.00
23229;BME280;11783;50.350;6.576;2023-11-21T09:01:31;96031.84;;;6.96;100.00
23229;BME280;11783;50.350;6.576;2023-11-21T09:03:57;96028.28;;;6.91;100.00
23229;BME280;11783;50.350;6.576;2023-11-21T09:06:23;96027.28;;;7.04;100.00
23229;BME280;11783;50.350;6.576;2023-11-21T09:08:49;96036.50;;;7.13;100.00
23229;BME280;11783;50.350;6.576;2023-11-21T09:11:14;96042.47;;;7.08;100.00
23229;BME280;11783;50.350;6.576;2023-11-21T09:13:40;96050.97;;;7.10;100.00
23229;BME280;11783;50.350;6.576;2023-11-21T09:16:05;96051.22;;;7.09;100.00
23229;BME280;11783;50.350;6.576;2023-11-21T09:18:31;96061.91;;;7.14;100.00
23229;BME280;11783;50.350;6.576;2023-11-21T09:20:57;96062.03;;;7.19;100.00
23229;BME280;11783;50.350;6.576;2023-11-21T09:23:22;96062.53;;;7.27;100.00
23229;BME280;11783;50.350;6.576;2023-11-21T09:25:47;96062.06;;;7.31;100.00
23229;BME280;11783;50.350;6.576;2023-11-21T09:28:15;96062.53;;;7.27;100.00
23229;BME280;11783;50.350;6.576;2023-11-21T09:30:40;96065.47;;;7.19;100.00
23229;BME280;11783;50.350;6.576;2023-11-21T09:33:06;96066.41;;;7.25;100.00
23229;BME280;11783;50.350;6.576;2023-11-21T09:35:32;96073.78;;;7.35;100.00
23229;BME280;11783;50.350;6.576;2023-11-21T09:37:57;96065.97;;;7.40;100.00
23229;BME280;11783;50.350;6.576;2023-11-21T09:40:23;96061.66;;;7.45;100.00
23229;BME280;11783;50.350;6.576;2023-11-21T09:45:25;96073.03;;;7.57;100.00
23229;BME280;11783;50.350;6.576;2023-11-21T09:47:52;96077.78;;;7.67;100.00
23229;BME280;11783;50.350;6.576;2023-11-21T09:50:19;96078.13;;;7.71;100.00
23229;BME280;11783;50.350;6.576;2023-11-21T09:55:34;96086.66;;;7.84;100.00
23229;BME280;11783;50.350;6.576;2023-11-21T09:58:02;96075.38;;;7.89;100.00
23229;BME280;11783;50.350;6.576;2023-11-21T10:00:29;96083.09;;;7.90;100.00
23229;BME280;11783;50.350;6.576;2023-11-21T10:02:57;96080.66;;;7.89;100.00
23229;BME280;11783;50.350;6.576;2023-11-21T10:05:23;96090.22;;;8.02;100.00
23229;BME280;11783;50.350;6.576;2023-11-21T10:07:50;96092.41;;;8.05;100.00
23229;BME280;11783;50.350;6.576;2023-11-21T10:10:19;96091.47;;;8.11;100.00
23229;BME280;11783;50.350;6.576;2023-11-21T10:12:49;96093.66;;;8.14;100.00
23229;BME280;11783;50.350;6.576;2023-11-21T10:15:16;96083.66;;;8.16;100.00
23229;BME280;11783;50.350;6.576;2023-11-21T10:17:44;96089.09;;;8.21;100.00
23229;BME280;11783;50.350;6.576;2023-11-21T10:20:11;96093.91;;;8.24;100.00
23229;BME280;11783;50.350;6.576;2023-11-21T10:22:40;96091.59;;;8.16;100.00
23229;BME280;11783;50.350;6.576;2023-11-21T10:25:07;96098.06;;;8.20;100.00
23229;BME280;11783;50.350;6.576;2023-11-21T10:27:34;96099.53;;;8.28;100.00
23229;BME280;11783;50.350;6.576;2023-11-21T10:30:03;96100.34;;;8.28;100.00
23229;BME280;11783;50.350;6.576;2023-11-21T10:32:29;96101.84;;;8.36;100.00
23229;BME280;11783;50.350;6.576;2023-11-21T10:34:57;96102.78;;;8.41;100.00
23229;BME280;11783;50.350;6.576;2023-11-21T10:37:25;96109.91;;;8.53;100.00
23229;BME280;11783;50.350;6.576;2023-11-21T10:39:57;96110.75;;;8.41;100.00
23229;BME280;11783;50.350;6.576;2023-11-21T10:42:23;96104.16;;;8.44;100.00
23229;BME280;11783;50.350;6.576;2023-11-21T10:44:49;96110.94;;;8.52;100.00
23229;BME280;11783;50.350;6.576;2023-11-21T10:47:16;96101.38;;;8.62;100.00
23229;BME280;11783;50.350;6.576;2023-11-21T10:49:44;96098.72;;;8.62;100.00
23229;BME280;11783;50.350;6.576;2023-11-21T10:52:10;96098.03;;;8.67;100.00
23229;BME280;11783;50.350;6.576;2023-11-21T10:54:43;96102.84;;;8.70;100.00
23229;BME280;11783;50.350;6.576;2023-11-21T10:57:09;96099.03;;;8.77;100.00
23229;BME280;11783;50.350;6.576;2023-11-21T10:59:36;96100.75;;;8.84;100.00
23229;BME280;11783;50.350;6.576;2023-11-21T11:02:06;96100.59;;;8.90;100.00
23229;BME280;11783;50.350;6.576;2023-11-21T11:04:42;96104.97;;;8.96;100.00
23229;BME280;11783;50.350;6.576;2023-11-21T11:07:08;96097.63;;;8.87;100.00
23229;BME280;11783;50.350;6.576;2023-11-21T11:09:36;96098.75;;;8.91;100.00
23229;BME280;11783;50.350;6.576;2023-11-21T11:12:06;96108.28;;;9.03;100.00
23229;BME280;11783;50.350;6.576;2023-11-21T11:14:32;96110.16;;;8.91;100.00
23229;BME280;11783;50.350;6.576;2023-11-21T11:16:58;96114.06;;;9.00;100.00
23229;BME280;11783;50.350;6.576;2023-11-21T11:19:25;96112.72;;;8.86;100.00
23229;BME280;11783;50.350;6.576;2023-11-21T11:24:53;96115.44;;;9.03;100.00
23229;BME280;11783;50.350;6.576;2023-11-21T11:27:37;96116.34;;;9.08;100.00
23229;BME280;11783;50.350;6.576;2023-11-21T11:36:03;96109.91;;;9.04;100.00
23229;BME280;11783;50.350;6.576;2023-11-21T11:38:32;96116.22;;;9.15;100.00
23229;BME280;11783;50.350;6.576;2023-11-21T11:41:07;96121.63;;;9.08;100.00
23229;BME280;11783;50.350;6.576;2023-11-21T11:43:32;96122.44;;;9.09;100.00
23229;BME280;11783;50.350;6.576;2023-11-21T11:46:03;96124.09;;;8.98;100.00
23229;BME280;11783;50.350;6.576;2023-11-21T11:48:29;96123.53;;;8.96;100.00
23229;BME280;11783;50.350;6.576;2023-11-21T11:51:09;96129.97;;;9.00;100.00
23229;BME280;11783;50.350;6.576;2023-11-21T11:53:37;96117.72;;;9.11;100.00
23229;BME280;11783;50.350;6.576;2023-11-21T11:58:49;96125.25;;;9.31;100.00
23229;BME280;11783;50.350;6.576;2023-11-21T12:01:19;96121.50;;;9.44;100.00
23229;BME280;11783;50.350;6.576;2023-11-21T12:03:45;96122.06;;;9.46;100.00
23229;BME280;11783;50.350;6.576;2023-11-21T12:06:34;96120.78;;;9.48;100.00
23229;BME280;11783;50.350;6.576;2023-11-21T12:09:01;96130.94;;;9.51;100.00
23229;BME280;11783;50.350;6.576;2023-11-21T12:11:31;96133.72;;;9.45;100.00
23229;BME280;11783;50.350;6.576;2023-11-21T12:13:57;96133.84;;;9.50;100.00
23229;BME280;11783;50.350;6.576;2023-11-21T12:16:25;96143.03;;;9.47;100.00
23229;BME280;11783;50.350;6.576;2023-11-21T12:18:52;96142.16;;;9.41;100.00
23229;BME280;11783;50.350;6.576;2023-11-21T12:21:19;96138.94;;;9.39;100.00
23229;BME280;11783;50.350;6.576;2023-11-21T12:23:45;96147.94;;;9.38;100.00
23229;BME280;11783;50.350;6.576;2023-11-21T12:26:12;96154.53;;;9.36;100.00
23229;BME280;11783;50.350;6.576;2023-11-21T12:28:38;96157.66;;;9.33;100.00
23229;BME280;11783;50.350;6.576;2023-11-21T12:31:04;96155.25;;;9.31;100.00
23229;BME280;11783;50.350;6.576;2023-11-21T12:33:32;96157.09;;;9.31;100.00
23229;BME280;11783;50.350;6.576;2023-11-21T12:35:58;96155.94;;;9.27;100.00
23229;BME280;11783;50.350;6.576;2023-11-21T12:38:23;96159.06;;;9.24;100.00
23229;BME280;11783;50.350;6.576;2023-11-21T12:40:50;96160.91;;;9.23;100.00
23229;BME280;11783;50.350;6.576;2023-11-21T12:43:16;96163.22;;;9.20;100.00
23229;BME280;11783;50.350;6.576;2023-11-21T12:45:43;96163.56;;;9.23;100.00
23229;BME280;11783;50.350;6.576;2023-11-21T12:48:09;96159.22;;;9.05;100.00
23229;BME280;11783;50.350;6.576;2023-11-21T12:50:37;96162.19;;;9.21;100.00
23229;BME280;11783;50.350;6.576;2023-11-21T12:53:05;96162.03;;;9.27;100.00
23229;BME280;11783;50.350;6.576;2023-11-21T12:55:34;96168.09;;;9.11;100.00
23229;BME280;11783;50.350;6.576;2023-11-21T12:58:04;96165.78;;;9.15;100.00
23229;BME280;11783;50.350;6.576;2023-11-21T13:00:47;96163.13;;;9.15;100.00
23229;BME280;11783;50.350;6.576;2023-11-21T13:03:14;96161.13;;;9.22;100.00
23229;BME280;11783;50.350;6.576;2023-11-21T13:05:51;96165.41;;;9.23;100.00
23229;BME280;11783;50.350;6.576;2023-11-21T13:08:19;96162.50;;;9.24;100.00
23229;BME280;11783;50.350;6.576;2023-11-21T13:10:49;96168.84;;;9.23;100.00
23229;BME280;11783;50.350;6.576;2023-11-21T13:13:14;96165.06;;;9.19;100.00